Time;durP1;ratioP1;P1;durP2;ratioP2;P2;SDS_P1;SDS_P2;PMS_P1;PMS_P2;Temp;Humidity;BMP_temperature;BMP_pressure;BME280_temperature;BME280_humidity;BME280_pressure;Samples;Min_cycle;Max_cycle;Signal;HPM_P1;HPM_P2
2021/11/12 00:02:44;;;;;;;25.30;15.00;;;8.00;99.90;;;;;;5036832;28;20491;-79
2021/11/12 00:13:25;;;;;;;20.20;12.27;;;7.80;99.90;;;;;;5048072;28;20444;-82
2021/11/12 00:15:58;;;;;;;23.17;14.10;;;7.90;99.90;;;;;;5043967;28;20591;-80
2021/11/12 00:18:29;;;;;;;24.00;14.97;;;7.90;99.90;;;;;;5042145;28;20483;-80
2021/11/12 00:21:00;;;;;;;24.47;14.17;;;7.90;99.90;;;;;;5041381;28;21204;-79
2021/11/12 00:23:30;;;;;;;22.03;12.67;;;7.80;99.90;;;;;;5044542;28;20489;-78
2021/11/12 00:26:00;;;;;;;18.47;12.40;;;7.80;99.90;;;;;;5047133;28;20459;-78
2021/11/12 00:28:33;;;;;;;20.07;14.13;;;7.80;99.90;;;;;;5046026;28;20479;-78
2021/11/12 00:31:06;;;;;;;20.50;13.63;;;7.80;99.90;;;;;;5034776;28;20900;-78
2021/11/12 00:33:46;;;;;;;27.87;14.07;;;7.80;99.90;;;;;;5036809;28;20542;-81
2021/11/12 00:36:36;;;;;;;26.27;14.47;;;7.80;99.90;;;;;;5036752;28;20511;-80
2021/11/12 00:39:11;;;;;;;24.70;12.47;;;7.70;99.90;;;;;;5039246;28;20452;-80
2021/11/12 00:41:41;;;;;;;16.00;12.50;;;7.50;99.90;;;;;;5051209;28;20480;-80
2021/11/12 00:44:19;;;;;;;21.30;14.27;;;7.40;99.90;;;;;;5048547;28;20455;-80
2021/11/12 00:46:51;;;;;;;21.27;14.10;;;7.40;99.90;;;;;;5048375;28;20493;-80
2021/11/12 00:49:22;;;;;;;23.23;12.37;;;7.50;99.90;;;;;;5036670;28;20440;-80
2021/11/12 00:51:51;;;;;;;24.53;14.33;;;7.50;99.90;;;;;;5047276;28;20442;-79
2021/11/12 00:54:20;;;;;;;20.97;13.73;;;7.60;99.90;;;;;;5036767;28;20851;-80
2021/11/12 00:56:50;;;;;;;23.20;13.57;;;7.70;99.90;;;;;;5042785;28;20459;-81
2021/11/12 00:59:20;;;;;;;22.17;14.37;;;7.70;99.90;;;;;;5044234;28;20476;-79
2021/11/12 01:01:49;;;;;;;23.13;14.20;;;7.70;99.90;;;;;;5033706;28;20995;-80
2021/11/12 01:04:20;;;;;;;26.00;14.40;;;7.70;99.90;;;;;;5041005;28;20506;-79
2021/11/12 01:06:50;;;;;;;17.70;13.03;;;7.70;99.90;;;;;;5047962;28;20977;-79
2021/11/12 01:09:21;;;;;;;21.33;14.20;;;7.60;99.90;;;;;;5047010;28;20460;-81
2021/11/12 01:11:51;;;;;;;19.70;12.60;;;7.60;99.90;;;;;;5041947;28;20463;-79
2021/11/12 01:14:23;;;;;;;23.70;14.63;;;7.60;99.90;;;;;;5043395;28;21035;-80
2021/11/12 01:16:52;;;;;;;20.77;13.43;;;7.50;99.90;;;;;;5045134;28;20795;-80
2021/11/12 01:19:21;;;;;;;21.53;14.00;;;7.50;99.90;;;;;;5043849;28;20566;-80
2021/11/12 01:21:50;;;;;;;18.93;13.30;;;7.50;99.90;;;;;;5047869;28;20476;-79
2021/11/12 01:24:18;;;;;;;23.37;13.87;;;7.50;99.90;;;;;;5042870;28;20452;-80
2021/11/12 01:26:47;;;;;;;22.43;12.37;;;7.40;99.90;;;;;;5033381;28;20963;-81
2021/11/12 01:29:15;;;;;;;17.40;12.80;;;7.30;99.90;;;;;;5043178;28;20513;-80
2021/11/12 01:31:46;;;;;;;20.30;13.20;;;7.40;99.90;;;;;;5043231;28;20456;-81
2021/11/12 01:34:15;;;;;;;21.10;13.60;;;7.40;99.90;;;;;;5039383;28;20527;-80
2021/11/12 01:36:45;;;;;;;17.97;13.03;;;7.50;99.90;;;;;;5046749;28;20455;-81
2021/11/12 01:39:16;;;;;;;18.83;11.53;;;7.40;99.90;;;;;;5040067;28;20465;-79
2021/11/12 01:41:48;;;;;;;26.50;17.03;;;7.50;99.90;;;;;;5045786;28;20970;-79
2021/11/12 01:44:25;;;;;;;38.53;18.73;;;7.60;99.90;;;;;;5042353;28;20455;-80
2021/11/12 01:47:09;;;;;;;31.73;14.83;;;7.50;99.90;;;;;;5037642;28;20540;-80
2021/11/12 01:49:38;;;;;;;22.97;14.57;;;7.40;99.90;;;;;;5038104;28;20832;-80
2021/11/12 01:52:11;;;;;;;23.87;13.40;;;7.40;99.90;;;;;;5045444;28;20447;-81
2021/11/12 02:00:11;;;;;;;21.27;14.60;;;7.40;99.90;;;;;;5044543;28;20483;-81
2021/11/12 02:02:41;;;;;;;16.70;11.70;;;7.40;99.90;;;;;;5044858;28;20542;-80
2021/11/12 02:05:10;;;;;;;22.27;13.17;;;7.40;99.90;;;;;;5042366;28;20459;-79
2021/11/12 02:07:39;;;;;;;23.53;14.07;;;7.40;99.90;;;;;;5038396;28;20483;-79
2021/11/12 02:10:11;;;;;;;22.83;12.73;;;7.30;99.90;;;;;;5039007;28;20557;-81
2021/11/12 02:12:50;;;;;;;22.20;13.83;;;7.30;99.90;;;;;;5038362;28;20475;-80
2021/11/12 02:15:19;;;;;;;18.97;12.27;;;7.30;99.90;;;;;;5042787;28;20451;-80
2021/11/12 02:17:57;;;;;;;20.73;13.60;;;7.20;99.90;;;;;;5043776;28;20958;-80
2021/11/12 02:20:30;;;;;;;25.80;13.40;;;7.30;99.90;;;;;;5033654;28;20567;-80
2021/11/12 02:23:02;;;;;;;21.13;12.80;;;7.30;99.90;;;;;;5041395;28;20459;-80
2021/11/12 02:25:35;;;;;;;24.93;13.53;;;7.30;99.90;;;;;;5039109;28;20535;-80
2021/11/12 02:28:07;;;;;;;16.87;13.70;;;7.30;99.90;;;;;;5034864;28;20490;-81
2021/11/12 02:30:36;;;;;;;22.45;13.32;;;7.30;99.90;;;;;;5042872;28;21046;-79
2021/11/12 02:33:07;;;;;;;23.53;12.27;;;7.20;99.90;;;;;;5033796;28;20204;-80
2021/11/12 02:35:38;;;;;;;20.13;11.77;;;7.20;99.90;;;;;;5039203;28;20449;-79
2021/11/12 02:38:08;;;;;;;20.47;13.67;;;7.20;99.90;;;;;;5046970;28;20209;-80
2021/11/12 02:40:39;;;;;;;19.38;13.95;;;7.20;99.90;;;;;;5040300;28;20480;-81
2021/11/12 02:43:07;;;;;;;21.27;12.90;;;7.10;99.90;;;;;;5031957;28;20198;-81
2021/11/12 02:45:38;;;;;;;17.43;11.40;;;7.10;99.90;;;;;;5037127;28;20451;-79
2021/11/12 02:48:07;;;;;;;23.33;13.77;;;7.10;99.90;;;;;;5038422;28;20459;-79
2021/11/12 02:50:35;;;;;;;21.80;13.33;;;7.10;99.90;;;;;;5042473;28;20491;-80
2021/11/12 02:53:08;;;;;;;18.50;11.97;;;7.10;99.90;;;;;;5047139;28;20456;-81
2021/11/12 02:55:38;;;;;;;26.57;13.30;;;7.00;99.90;;;;;;5030464;28;20459;-80
2021/11/12 02:58:06;;;;;;;19.97;13.07;;;7.00;99.90;;;;;;5044417;28;20812;-79
2021/11/12 03:00:37;;;;;;;22.67;13.30;;;7.00;99.90;;;;;;5038048;28;20475;-79
2021/11/12 03:03:06;;;;;;;20.97;12.43;;;7.00;99.90;;;;;;5047036;28;20567;-80
2021/11/12 03:05:34;;;;;;;19.33;12.30;;;7.10;99.90;;;;;;5045963;28;20444;-80
2021/11/12 03:08:02;;;;;;;19.17;12.07;;;7.10;99.90;;;;;;5035689;28;20802;-79
2021/11/12 03:10:31;;;;;;;20.63;12.90;;;7.10;99.90;;;;;;5045389;28;20270;-81
2021/11/12 03:13:00;;;;;;;19.70;11.67;;;7.10;99.90;;;;;;5045841;28;20444;-79
2021/11/12 03:15:29;;;;;;;20.70;11.85;;;7.20;99.90;;;;;;5045935;28;21028;-80
2021/11/12 03:17:58;;;;;;;17.50;10.67;;;7.10;99.90;;;;;;5044162;28;20289;-79
2021/11/12 03:20:28;;;;;;;19.45;11.98;;;7.00;99.90;;;;;;5045881;28;20499;-80
2021/11/12 03:22:59;;;;;;;17.47;12.53;;;6.90;99.90;;;;;;5043379;28;20217;-81
2021/11/12 03:25:33;;;;;;;15.37;11.97;;;7.00;99.90;;;;;;5038559;28;20456;-79
2021/11/12 03:28:23;;;;;;;16.60;10.70;;;7.00;99.90;;;;;;5051471;28;20749;-79
2021/11/12 04:01:45;;;;;;;18.73;12.40;;;6.80;99.90;;;;;;5045665;28;20537;-80
2021/11/12 04:04:34;;;;;;;16.97;10.67;;;6.80;99.90;;;;;;5041664;28;20459;-80
2021/11/12 04:07:10;;;;;;;14.30;10.43;;;6.80;99.90;;;;;;5047340;28;20456;-79
2021/11/12 04:18:19;;;;;;;16.50;11.50;;;6.80;99.90;;;;;;5052341;28;20460;-80
2021/11/12 04:21:00;;;;;;;17.60;11.50;;;6.80;99.90;;;;;;5043168;28;20221;-80
2021/11/12 05:10:59;;;;;;;17.00;12.07;;;6.80;99.90;;;;;;5022461;28;20524;-79
2021/11/12 05:13:47;;;;;;;17.95;13.38;;;6.80;99.90;;;;;;5042406;28;20240;-81
2021/11/12 05:44:30;;;;;;;17.43;10.90;;;6.60;99.90;;;;;;5042366;28;20961;-78
2021/11/12 05:47:13;;;;;;;21.65;12.05;;;6.70;99.90;;;;;;5039151;28;20947;-80
2021/11/12 05:49:50;;;;;;;16.77;12.40;;;6.70;99.90;;;;;;5045916;28;20224;-79
2021/11/12 05:55:04;;;;;;;21.63;12.50;;;6.70;99.90;;;;;;5042593;28;20212;-78
2021/11/12 05:55:10;;;;;;;15.50;11.60;;;6.80;99.90;;;;;;5038080;28;20537;-79
2021/11/12 05:57:40;;;;;;;21.73;13.67;;;6.80;99.90;;;;;;5040594;28;20460;-80
2021/11/12 06:00:11;;;;;;;20.53;12.53;;;6.70;99.90;;;;;;5037145;28;20477;-79
2021/11/12 06:02:39;;;;;;;13.48;11.07;;;6.70;99.90;;;;;;5045606;28;20472;-80
2021/11/12 06:05:08;;;;;;;19.80;11.75;;;6.70;99.90;;;;;;5039591;28;20947;-80
2021/11/12 06:07:37;;;;;;;19.25;12.00;;;6.60;99.90;;;;;;5042241;28;20187;-79
2021/11/12 06:10:06;;;;;;;17.23;12.20;;;6.60;99.90;;;;;;5039362;28;20230;-80
2021/11/12 06:12:35;;;;;;;17.53;11.23;;;6.70;99.90;;;;;;5028016;28;20611;-79
2021/11/12 06:15:06;;;;;;;18.80;11.70;;;6.70;99.90;;;;;;5030293;28;20470;-81
2021/11/12 06:17:34;;;;;;;22.33;14.10;;;6.70;99.90;;;;;;5034329;28;20443;-80
2021/11/12 06:20:03;;;;;;;18.70;12.35;;;6.70;99.90;;;;;;5037363;28;20263;-80
2021/11/12 06:22:31;;;;;;;16.45;11.90;;;6.70;99.90;;;;;;5040946;28;20296;-79
2021/11/12 06:25:00;;;;;;;17.57;12.40;;;6.70;99.90;;;;;;5038910;28;20672;-78
2021/11/12 06:27:28;;;;;;;18.20;13.47;;;6.90;99.90;;;;;;5045634;28;20810;-81
2021/11/12 06:29:56;;;;;;;23.33;14.90;;;6.70;99.90;;;;;;5043239;28;20467;-80
2021/11/12 06:32:26;;;;;;;22.67;14.20;;;6.50;99.90;;;;;;5036103;28;20448;-79
2021/11/12 06:34:54;;;;;;;19.73;13.57;;;6.50;99.90;;;;;;5036950;28;20456;-81
2021/11/12 06:37:23;;;;;;;19.52;13.32;;;6.50;99.90;;;;;;5033282;28;20935;-81
2021/11/12 06:39:51;;;;;;;20.13;13.67;;;6.60;99.90;;;;;;5025436;28;20221;-81
2021/11/12 06:42:21;;;;;;;16.15;11.48;;;6.40;99.90;;;;;;5042585;28;21065;-81
2021/11/12 06:50:28;;;;;;;29.57;17.03;;;6.10;99.90;;;;;;5037370;28;21445;-80
2021/11/12 06:52:57;;;;;;;29.45;15.40;;;6.30;99.90;;;;;;5042782;28;20456;-79
2021/11/12 06:55:25;;;;;;;31.93;16.47;;;6.40;99.90;;;;;;5039640;28;20528;-80
2021/11/12 06:57:53;;;;;;;26.80;16.50;;;6.40;99.90;;;;;;5039476;28;20459;-81
2021/11/12 07:00:23;;;;;;;25.05;14.60;;;6.30;99.90;;;;;;5038773;28;20307;-81
2021/11/12 07:02:52;;;;;;;27.03;14.00;;;6.20;99.90;;;;;;5041331;28;20225;-79
2021/11/12 07:05:22;;;;;;;24.13;14.47;;;6.20;99.90;;;;;;5045189;28;20447;-80
2021/11/12 07:07:50;;;;;;;26.47;13.33;;;6.30;99.90;;;;;;5044458;28;20539;-80
2021/11/12 07:10:18;;;;;;;20.05;13.23;;;6.30;99.90;;;;;;5035556;28;20492;-79
2021/11/12 07:12:46;;;;;;;23.80;14.68;;;6.30;99.90;;;;;;5032449;28;20271;-80
2021/11/12 07:15:15;;;;;;;26.38;16.02;;;6.50;99.90;;;;;;5038290;28;20214;-79
2021/11/12 07:17:43;;;;;;;25.17;13.47;;;6.50;99.90;;;;;;5042780;28;20537;-81
2021/11/12 07:20:14;;;;;;;23.87;12.50;;;6.60;99.90;;;;;;5054141;28;20490;-78
2021/11/12 07:22:44;;;;;;;24.73;13.18;;;6.60;99.90;;;;;;5037743;28;20451;-79
2021/11/12 07:25:12;;;;;;;21.60;13.70;;;6.70;99.90;;;;;;5035472;28;20217;-78
2021/11/12 07:27:40;;;;;;;24.05;13.40;;;6.60;99.90;;;;;;5035190;28;20506;-78
2021/11/12 07:30:19;;;;;;;18.63;12.70;;;6.60;99.90;;;;;;5035641;28;20228;-80
2021/11/12 07:32:50;;;;;;;28.40;14.07;;;6.60;99.90;;;;;;5037720;28;20202;-78
2021/11/12 07:35:25;;;;;;;22.50;13.82;;;6.50;99.90;;;;;;5035348;28;20304;-79
2021/11/12 07:37:58;;;;;;;24.45;14.27;;;6.50;99.90;;;;;;5036429;28;20288;-80
2021/11/12 07:40:37;;;;;;;20.20;12.77;;;6.60;99.90;;;;;;5041166;28;20308;-81
2021/11/12 07:43:22;;;;;;;24.13;14.70;;;6.70;99.90;;;;;;5029318;28;20938;-79
2021/11/12 07:46:10;;;;;;;22.10;13.00;;;6.80;99.90;;;;;;5036294;28;20571;-79
2021/11/12 07:48:39;;;;;;;25.90;14.50;;;6.90;99.90;;;;;;5041683;28;20672;-80
2021/11/12 07:51:10;;;;;;;22.70;14.05;;;6.90;99.90;;;;;;5043171;28;20213;-79
2021/11/12 07:53:38;;;;;;;27.53;14.47;;;6.80;99.90;;;;;;5044297;28;20665;-80
2021/11/12 07:56:07;;;;;;;25.15;13.40;;;6.80;99.90;;;;;;5051009;28;20456;-79
2021/11/12 07:58:35;;;;;;;26.13;14.73;;;6.80;99.90;;;;;;5045208;28;20279;-79
2021/11/12 08:01:03;;;;;;;22.92;13.32;;;6.60;99.90;;;;;;5045390;28;20489;-80
2021/11/12 08:03:33;;;;;;;32.40;14.63;;;6.40;99.90;;;;;;5039155;28;20263;-80
2021/11/12 08:06:05;;;;;;;23.42;13.55;;;6.20;99.90;;;;;;5041855;28;20204;-79
2021/11/12 08:08:36;;;;;;;25.05;15.90;;;6.20;1.00;;;;;;5035991;28;20260;-79
2021/11/12 08:11:11;;;;;;;19.63;14.20;;;6.10;1.00;;;;;;5039034;28;20221;-79
2021/11/12 08:13:44;;;;;;;20.23;12.10;;;6.00;1.00;;;;;;5041974;28;20447;-80
2021/11/12 08:16:45;;;;;;;19.05;12.57;;;6.20;1.00;;;;;;5044896;28;20531;-80
2021/11/12 08:19:16;;;;;;;23.65;12.10;;;6.30;1.00;;;;;;5046006;28;20190;-81
2021/11/12 08:21:51;;;;;;;19.45;11.75;;;6.20;1.00;;;;;;5039168;28;20190;-80
2021/11/12 08:24:31;;;;;;;21.05;12.10;;;6.30;1.00;;;;;;5044544;28;20716;-82
2021/11/12 08:27:04;;;;;;;16.00;11.57;;;6.40;1.00;;;;;;5043820;28;20211;-81
2021/11/12 08:29:48;;;;;;;19.37;12.33;;;6.60;1.00;;;;;;5049488;28;20233;-78
2021/11/12 08:35:15;;;;;;;18.93;12.33;;;6.80;1.00;;;;;;5028543;28;20463;-79
2021/11/12 08:37:50;;;;;;;20.77;11.80;;;6.90;1.00;;;;;;5044167;28;20455;-79
2021/11/12 08:40:31;;;;;;;15.97;10.30;;;6.90;1.00;;;;;;5038376;28;20566;-81
2021/11/12 08:43:04;;;;;;;12.93;10.43;;;7.00;1.00;;;;;;5044590;28;20542;-78
2021/11/12 08:45:36;;;;;;;14.82;11.10;;;7.20;1.00;;;;;;5039171;28;21026;-78
2021/11/12 08:48:07;;;;;;;17.60;10.13;;;7.50;1.00;;;;;;5035924;28;20225;-80
2021/11/12 08:50:36;;;;;;;16.67;11.20;;;7.80;99.90;;;;;;5039994;28;20475;-80
2021/11/12 08:53:06;;;;;;;16.67;10.60;;;7.80;99.90;;;;;;5045959;28;20459;-81
2021/11/12 08:55:38;;;;;;;17.77;11.93;;;8.00;1.00;;;;;;5040064;28;20444;-82
2021/11/12 08:58:10;;;;;;;20.53;12.13;;;8.10;99.90;;;;;;5043640;28;20952;-79
2021/11/12 09:00:40;;;;;;;22.03;12.97;;;8.20;99.90;;;;;;5034017;28;21038;-81
2021/11/12 09:03:09;;;;;;;19.80;12.53;;;8.10;99.90;;;;;;5045048;28;20463;-80
2021/11/12 09:05:38;;;;;;;20.33;12.40;;;8.10;99.90;;;;;;5039816;28;20503;-80
2021/11/12 09:08:07;;;;;;;17.50;11.30;;;8.20;99.90;;;;;;5042030;28;20463;-80
2021/11/12 09:10:37;;;;;;;18.27;12.43;;;8.40;1.00;;;;;;5051267;28;20871;-80
2021/11/12 09:13:13;;;;;;;18.63;11.33;;;8.40;1.00;;;;;;5043543;28;20446;-80
2021/11/12 09:15:47;;;;;;;20.87;11.90;;;8.60;99.90;;;;;;5045263;28;20469;-80
2021/11/12 09:18:17;;;;;;;16.77;11.93;;;8.70;99.90;;;;;;5041829;28;20457;-80
2021/11/12 09:20:46;;;;;;;21.47;12.27;;;8.80;99.90;;;;;;5047486;28;20480;-80
2021/11/12 09:23:14;;;;;;;18.83;11.23;;;9.00;99.90;;;;;;5038644;28;20447;-79
2021/11/12 09:25:44;;;;;;;14.27;11.07;;;9.20;99.90;;;;;;5033795;28;20473;-82
2021/11/12 09:28:14;;;;;;;18.00;10.77;;;9.30;99.90;;;;;;5041145;28;20454;-80
2021/11/12 09:30:43;;;;;;;18.97;11.23;;;9.50;99.90;;;;;;5039720;28;20481;-80
2021/11/12 09:33:11;;;;;;;19.50;11.07;;;9.60;99.90;;;;;;5036451;28;20464;-80
2021/11/12 09:35:40;;;;;;;20.17;11.17;;;9.80;99.90;;;;;;5042993;28;20454;-81
2021/11/12 09:38:08;;;;;;;13.40;10.10;;;10.00;99.90;;;;;;5044292;28;20456;-80
2021/11/12 09:40:36;;;;;;;13.97;9.37;;;10.10;99.90;;;;;;5033637;28;20473;-79
2021/11/12 09:43:06;;;;;;;11.33;9.43;;;10.30;99.90;;;;;;5039949;28;20471;-80
2021/11/12 09:45:34;;;;;;;14.73;11.10;;;10.60;99.90;;;;;;5035267;28;20484;-80
2021/11/12 09:48:03;;;;;;;13.23;10.30;;;10.70;99.90;;;;;;5046695;28;20481;-80
2021/11/12 09:50:34;;;;;;;13.97;9.77;;;10.90;99.90;;;;;;5033287;28;20485;-80
2021/11/12 09:53:03;;;;;;;16.80;11.80;;;11.10;99.90;;;;;;5040350;28;21038;-81
2021/11/12 09:55:32;;;;;;;14.60;10.70;;;11.20;99.90;;;;;;5038897;28;20462;-81
2021/11/12 09:58:02;;;;;;;17.07;12.20;;;11.40;99.90;;;;;;5037284;28;20463;-81
2021/11/12 10:00:33;;;;;;;13.80;10.57;;;11.50;99.90;;;;;;5031932;28;20484;-84
2021/11/12 10:03:02;;;;;;;14.50;10.63;;;11.60;99.90;;;;;;5035194;28;20482;-81
2021/11/12 10:05:38;;;;;;;17.53;11.00;;;11.70;99.90;;;;;;5041472;28;20481;-81
2021/11/12 10:08:23;;;;;;;16.23;11.47;;;11.80;99.90;;;;;;5046052;28;20881;-81
2021/11/12 10:10:54;;;;;;;14.37;10.33;;;11.90;99.90;;;;;;5040966;28;20517;-79
2021/11/12 10:13:25;;;;;;;13.07;9.47;;;12.10;99.90;;;;;;5029372;28;20437;-81
2021/11/12 10:16:13;;;;;;;12.63;8.27;;;12.20;99.90;;;;;;5038051;28;20505;-80
2021/11/12 10:19:02;;;;;;;10.40;8.37;;;12.40;99.90;;;;;;5045827;28;20443;-80
2021/11/12 10:21:33;;;;;;;14.53;10.73;;;12.50;99.90;;;;;;5037754;28;21172;-80
2021/11/12 10:24:02;;;;;;;19.03;10.90;;;12.50;99.90;;;;;;5035587;28;20473;-81
2021/11/12 10:26:33;;;;;;;15.90;9.77;;;12.70;99.90;;;;;;5051606;28;20853;-81
2021/11/12 10:29:05;;;;;;;15.40;10.03;;;12.70;99.90;;;;;;5043610;28;20505;-81
2021/11/12 10:31:44;;;;;;;15.27;10.70;;;12.80;99.90;;;;;;5043732;28;21063;-83
2021/11/12 10:34:16;;;;;;;13.20;9.80;;;13.00;99.90;;;;;;5043221;28;20484;-80
2021/11/12 10:36:56;;;;;;;10.80;9.07;;;13.20;99.90;;;;;;5036123;28;20537;-81
2021/11/12 10:39:41;;;;;;;13.63;10.17;;;13.40;99.90;;;;;;5036717;28;20867;-81
2021/11/12 10:42:12;;;;;;;12.63;11.37;;;13.50;99.90;;;;;;5035709;28;20489;-80
2021/11/12 10:44:47;;;;;;;13.23;9.10;;;13.60;99.90;;;;;;5040332;28;20487;-80
2021/11/12 10:47:18;;;;;;;18.07;10.77;;;13.80;99.90;;;;;;5042104;28;20455;-80
2021/11/12 10:49:48;;;;;;;15.40;11.27;;;13.90;99.90;;;;;;5038985;28;20875;-81
2021/11/12 10:52:20;;;;;;;12.27;8.87;;;14.00;99.90;;;;;;5035403;28;20453;-80
2021/11/12 10:54:55;;;;;;;14.43;11.77;;;14.20;99.90;;;;;;5035272;28;20755;-82
2021/11/12 10:57:28;;;;;;;18.70;11.30;;;14.20;99.90;;;;;;5037640;28;21011;-80
2021/11/12 11:00:08;;;;;;;18.50;10.90;;;14.40;99.90;;;;;;5042820;28;20479;-80
2021/11/12 11:02:41;;;;;;;13.37;10.33;;;14.60;99.90;;;;;;5041449;28;20528;-80
2021/11/12 11:05:12;;;;;;;15.80;10.93;;;14.70;99.90;;;;;;5042987;28;20556;-79
2021/11/12 11:07:41;;;;;;;15.00;10.37;;;14.80;99.90;;;;;;5038681;28;20539;-80
2021/11/12 11:10:24;;;;;;;16.10;10.33;;;14.60;99.90;;;;;;5031121;28;20500;-78
2021/11/12 11:12:53;;;;;;;13.63;11.10;;;14.50;99.90;;;;;;5037099;28;20452;-77
2021/11/12 11:15:35;;;;;;;15.90;11.77;;;14.40;99.90;;;;;;5034806;28;20291;-76
2021/11/12 11:18:25;;;;;;;13.77;10.20;;;14.30;99.90;;;;;;5040501;28;20804;-80
2021/11/12 11:20:58;;;;;;;11.47;10.07;;;14.30;99.90;;;;;;5039199;28;20479;-80
2021/11/12 11:23:28;;;;;;;11.70;9.23;;;14.10;99.90;;;;;;5045051;28;20541;-79
2021/11/12 11:26:03;;;;;;;12.37;9.77;;;13.90;99.90;;;;;;5042986;28;20461;-79
2021/11/12 11:28:33;;;;;;;12.40;8.40;;;13.90;99.90;;;;;;5046924;28;20459;-81
2021/11/12 11:31:04;;;;;;;10.97;8.87;;;13.80;99.90;;;;;;5040682;28;20528;-82
2021/11/12 11:33:34;;;;;;;12.10;9.00;;;13.80;99.90;;;;;;5033441;28;20484;-80
2021/11/12 11:36:05;;;;;;;12.90;8.87;;;13.80;99.90;;;;;;5042860;28;20450;-79
2021/11/12 11:38:35;;;;;;;14.37;10.17;;;13.80;99.90;;;;;;5040152;28;20535;-79
2021/11/12 11:41:06;;;;;;;12.93;9.47;;;13.80;99.90;;;;;;5046313;28;20536;-79
2021/11/12 11:43:35;;;;;;;12.17;7.93;;;13.80;99.90;;;;;;5037024;28;20456;-80
2021/11/12 11:46:06;;;;;;;13.67;10.63;;;13.90;99.90;;;;;;5038203;28;20475;-79
2021/11/12 11:48:37;;;;;;;14.17;9.87;;;14.00;99.90;;;;;;5042569;28;20558;-78
2021/11/12 11:51:29;;;;;;;14.20;9.90;;;14.00;99.90;;;;;;5047948;28;20481;-78
2021/11/12 11:54:06;;;;;;;11.50;8.50;;;13.90;99.90;;;;;;5043235;28;20828;-79
2021/11/12 11:56:36;;;;;;;13.00;9.40;;;13.90;99.90;;;;;;5044681;28;20457;-79
2021/11/12 11:59:10;;;;;;;15.80;10.50;;;13.90;99.90;;;;;;5037565;28;20460;-79
2021/11/12 12:01:45;;;;;;;13.10;9.57;;;13.90;99.90;;;;;;5045466;28;20527;-79
2021/11/12 12:04:34;;;;;;;14.80;9.63;;;13.90;99.90;;;;;;5041328;28;20456;-79
2021/11/12 12:07:25;;;;;;;18.73;10.60;;;14.00;99.90;;;;;;5044526;28;21062;-77
2021/11/12 12:10:10;;;;;;;16.07;11.60;;;14.00;99.90;;;;;;5022921;28;20831;-79
2021/11/12 12:12:48;;;;;;;15.17;9.63;;;14.20;99.90;;;;;;5041782;28;21246;-78
2021/11/12 12:15:40;;;;;;;14.00;10.70;;;14.30;99.90;;;;;;5042243;28;20963;-81
2021/11/12 12:18:30;;;;;;;13.47;10.40;;;14.20;99.90;;;;;;5042636;28;20515;-81
2021/11/12 13:20:25;;;;;;;12.50;8.90;;;14.90;99.90;;;;;;5041713;28;20471;-78
2021/11/12 13:23:05;;;;;;;9.77;8.37;;;14.90;99.90;;;;;;5034022;28;20456;-79
2021/11/12 13:25:37;;;;;;;12.53;8.87;;;14.90;99.90;;;;;;5044928;28;20815;-79
2021/11/12 13:28:14;;;;;;;11.93;8.47;;;15.00;99.90;;;;;;5043028;28;20457;-79
2021/11/12 13:30:45;;;;;;;11.00;8.87;;;14.90;99.90;;;;;;5039115;28;20589;-80
2021/11/12 13:33:40;;;;;;;12.27;8.30;;;15.00;99.90;;;;;;5036728;28;20497;-77
2021/11/12 13:36:24;;;;;;;11.65;8.02;;;14.90;99.90;;;;;;5030630;28;20836;-79
2021/11/12 13:38:56;;;;;;;8.47;7.33;;;15.00;99.90;;;;;;5042559;28;20223;-80
2021/11/12 13:41:28;;;;;;;10.93;8.17;;;15.20;99.90;;;;;;5035278;28;20477;-79
2021/11/12 13:44:03;;;;;;;10.77;8.73;;;15.20;99.90;;;;;;5028953;28;20514;-79
2021/11/12 13:46:47;;;;;;;14.77;9.13;;;15.20;99.90;;;;;;5045670;28;21210;-80
2021/11/12 13:49:26;;;;;;;11.80;8.43;;;15.20;99.90;;;;;;5042996;28;20451;-79
2021/11/12 13:52:01;;;;;;;9.73;8.30;;;15.30;99.90;;;;;;5034659;28;20565;-78
2021/11/12 13:54:30;;;;;;;11.33;8.10;;;15.20;99.90;;;;;;5054051;28;20985;-78
2021/11/12 13:57:08;;;;;;;8.83;7.33;;;15.20;99.90;;;;;;5035186;28;20463;-77
2021/11/12 13:59:37;;;;;;;9.93;8.00;;;15.20;99.90;;;;;;5042141;28;20458;-77
2021/11/12 14:02:05;;;;;;;9.93;7.60;;;15.20;99.90;;;;;;5037130;28;20481;-77
2021/11/12 14:04:34;;;;;;;9.63;8.70;;;15.10;99.90;;;;;;5041502;28;20455;-79
2021/11/12 14:07:02;;;;;;;10.97;7.47;;;15.20;99.90;;;;;;5036175;28;20571;-78
2021/11/12 14:09:34;;;;;;;10.03;7.53;;;15.20;99.90;;;;;;5032162;28;20543;-79
2021/11/12 14:12:08;;;;;;;14.23;8.90;;;15.30;99.90;;;;;;5035820;28;20527;-80
2021/11/12 14:14:39;;;;;;;8.73;7.40;;;15.30;99.90;;;;;;5024837;28;20460;-79
2021/11/12 14:17:25;;;;;;;10.10;7.00;;;15.40;99.90;;;;;;5040980;28;20951;-80
2021/11/12 14:20:21;;;;;;;13.23;9.30;;;15.40;99.90;;;;;;5035850;28;20594;-80
2021/11/12 14:22:54;;;;;;;14.30;9.10;;;15.50;99.90;;;;;;5036930;28;20451;-80
2021/11/12 14:28:14;;;;;;;58.83;27.30;;;15.40;99.90;;;;;;4999333;28;20501;-79
2021/11/12 14:33:32;;;;;;;15.60;11.87;;;15.40;99.90;;;;;;5026941;28;20616;-80
2021/11/12 14:36:20;;;;;;;13.10;10.20;;;15.40;99.90;;;;;;5044797;28;20463;-79
2021/11/12 14:38:54;;;;;;;14.13;10.60;;;15.30;99.90;;;;;;5039999;28;20459;-80
2021/11/12 14:41:43;;;;;;;16.93;12.50;;;15.30;99.90;;;;;;5045149;28;20475;-79
2021/11/12 14:47:06;;;;;;;16.10;11.53;;;15.20;99.90;;;;;;5029363;28;20549;-80
2021/11/12 14:49:36;;;;;;;15.83;11.20;;;15.20;99.90;;;;;;5050932;28;20537;-81
2021/11/12 14:52:08;;;;;;;17.77;11.00;;;15.00;99.90;;;;;;5035110;28;20490;-81
2021/11/12 14:54:38;;;;;;;16.43;11.10;;;14.90;99.90;;;;;;5041322;28;20555;-80
2021/11/12 14:57:15;;;;;;;15.07;12.23;;;14.80;99.90;;;;;;5027576;28;20486;-78
2021/11/12 14:59:46;;;;;;;19.67;12.30;;;14.70;99.90;;;;;;5046812;28;20492;-80
2021/11/12 15:02:15;;;;;;;21.10;13.90;;;14.40;99.90;;;;;;5043920;28;20469;-80
2021/11/12 15:04:44;;;;;;;16.57;11.43;;;14.00;99.90;;;;;;5043746;28;20510;-80
2021/11/12 15:07:13;;;;;;;18.97;12.57;;;13.80;99.90;;;;;;5035513;28;20566;-81
2021/11/12 15:09:42;;;;;;;16.50;11.27;;;13.60;99.90;;;;;;5036309;28;20457;-81
2021/11/12 15:12:11;;;;;;;13.87;11.80;;;13.50;99.90;;;;;;5037306;28;20569;-83
2021/11/12 15:14:43;;;;;;;16.92;12.48;;;13.30;99.90;;;;;;5034258;28;20451;-79
2021/11/12 15:17:12;;;;;;;19.33;12.40;;;13.00;99.90;;;;;;5045217;28;20315;-80
2021/11/12 15:19:43;;;;;;;16.33;10.53;;;13.00;99.90;;;;;;5048053;28;20454;-80
2021/11/12 15:22:22;;;;;;;17.00;11.70;;;12.90;99.90;;;;;;5046054;28;21049;-79
2021/11/12 15:25:02;;;;;;;14.77;11.27;;;12.80;99.90;;;;;;5047985;28;20527;-80
2021/11/12 15:27:43;;;;;;;17.03;10.50;;;12.60;99.90;;;;;;5044021;28;20473;-80
2021/11/12 15:30:18;;;;;;;17.50;11.57;;;12.50;99.90;;;;;;5045517;28;20471;-79
2021/11/12 15:32:50;;;;;;;16.20;9.83;;;12.30;99.90;;;;;;5045228;28;20450;-79
2021/11/12 15:35:21;;;;;;;13.40;10.47;;;12.20;99.90;;;;;;5042336;28;20492;-81
2021/11/12 15:37:54;;;;;;;14.77;10.00;;;12.00;99.90;;;;;;5048898;28;20449;-80
2021/11/12 15:40:24;;;;;;;16.23;9.40;;;11.90;99.90;;;;;;5045495;28;20828;-81
2021/11/12 15:46:07;;;;;;;17.33;10.30;;;11.70;99.90;;;;;;4990928;28;20548;-82
2021/11/12 15:48:39;;;;;;;13.53;9.93;;;11.70;99.90;;;;;;4988020;28;20609;-82
2021/11/12 15:54:12;;;;;;;15.63;11.00;;;11.70;99.90;;;;;;5038231;28;20509;-83
2021/11/12 15:59:32;;;;;;;17.17;10.73;;;11.60;99.90;;;;;;5050465;28;20452;-81
2021/11/12 16:05:11;;;;;;;16.40;10.90;;;11.40;99.90;;;;;;5044142;28;20534;-82
2021/11/12 16:07:56;;;;;;;16.83;10.70;;;11.50;99.90;;;;;;5046528;28;20871;-83
2021/11/12 16:13:18;;;;;;;15.17;10.27;;;11.50;99.90;;;;;;5040093;28;20468;-79
2021/11/12 16:18:43;;;;;;;16.90;11.60;;;11.50;99.90;;;;;;5020243;28;20468;-79
2021/11/12 16:27:00;;;;;;;21.27;13.10;;;11.20;99.90;;;;;;5000187;28;20505;-78
2021/11/12 16:29:40;;;;;;;18.20;11.47;;;11.20;99.90;;;;;;5019776;28;20466;-79
2021/11/12 16:32:17;;;;;;;17.90;12.80;;;11.20;99.90;;;;;;5030718;28;20455;-79
2021/11/12 16:34:46;;;;;;;20.57;13.10;;;11.20;99.90;;;;;;5033131;28;20456;-79
2021/11/12 16:37:19;;;;;;;19.07;11.40;;;11.20;99.90;;;;;;5038861;28;20479;-79
2021/11/12 16:39:50;;;;;;;18.50;11.83;;;11.10;99.90;;;;;;5037944;28;20479;-79
2021/11/12 16:42:35;;;;;;;17.23;12.50;;;10.90;99.90;;;;;;5042514;28;20478;-79
2021/11/12 16:45:08;;;;;;;16.00;11.47;;;10.90;99.90;;;;;;5033297;28;21160;-78
2021/11/12 16:53:18;;;;;;;20.83;13.27;;;10.60;99.90;;;;;;5016794;28;20463;-78
2021/11/12 16:58:36;;;;;;;21.35;15.43;;;10.70;99.90;;;;;;5013934;28;20938;-78
2021/11/12 17:06:40;;;;;;;13.83;10.53;;;10.60;99.90;;;;;;5005681;28;20549;-79
2021/11/12 17:09:21;;;;;;;16.60;10.37;;;10.40;99.90;;;;;;5038284;28;20574;-80